Time;durP1;ratioP1;P1;durP2;ratioP2;P2;SDS_P1;SDS_P2;PMS_P1;PMS_P2;Temp;Humidity;BMP_temperature;BMP_pressure;BME280_temperature;BME280_humidity;BME280_pressure;Samples;Min_cycle;Max_cycle;Signal;HPM_P1;HPM_P2
2023/10/05 00:03:43;;;;;;;10.57;3.70;;;;;;;9.93;69.59;100951.44;31211533;28;97523;-61
2023/10/05 00:18:44;;;;;;;8.70;4.10;;;;;;;10.01;70.34;100952.56;31210638;28;96712;-60
2023/10/05 00:33:45;;;;;;;9.95;4.07;;;;;;;10.04;70.09;100934.44;31209840;28;97142;-61
2023/10/05 00:49:12;;;;;;;6.75;3.97;;;;;;;10.00;70.62;100933.06;31208313;27;97858;-63
2023/10/05 01:04:18;;;;;;;8.10;3.83;;;;;;;9.78;70.22;100916.50;31229619;28;97541;-63
2023/10/05 01:19:19;;;;;;;8.53;3.40;;;;;;;9.47;70.90;100914.13;31226637;28;97171;-61
2023/10/05 01:34:20;;;;;;;8.13;4.15;;;;;;;9.30;71.45;100921.00;31225694;28;117288;-68
2023/10/05 01:49:21;;;;;;;9.07;3.83;;;;;;;9.03;71.73;100897.03;31223486;27;97289;-61
2023/10/05 02:04:22;;;;;;;6.95;3.47;;;;;;;8.78;72.13;100878.88;31224200;27;97143;-63
2023/10/05 02:19:22;;;;;;;8.07;3.53;;;;;;;8.72;72.50;100886.56;31223275;28;96708;-62
2023/10/05 02:34:24;;;;;;;6.22;3.47;;;;;;;8.58;73.21;100882.53;31220373;28;97685;-64
2023/10/05 02:49:25;;;;;;;8.03;3.13;;;;;;;8.51;73.20;100889.38;31219384;27;97330;-60
2023/10/05 03:04:44;;;;;;;5.23;3.23;;;;;;;8.51;73.96;100886.72;31216026;28;96764;-60
2023/10/05 03:19:44;;;;;;;8.77;3.57;;;;;;;8.40;74.12;100863.78;31211882;27;96740;-63
2023/10/05 03:34:55;;;;;;;5.53;3.10;;;;;;;8.48;74.42;100855.16;31213617;28;97325;-61
2023/10/05 03:49:56;;;;;;;7.93;3.37;;;;;;;8.38;74.54;100840.03;31211378;28;98285;-60
2023/10/05 04:04:59;;;;;;;8.83;3.13;;;;;;;8.34;74.99;100812.06;31208424;28;97138;-67
2023/10/05 04:19:59;;;;;;;7.13;3.47;;;;;;;8.38;75.16;100802.84;31205415;28;96688;-65
2023/10/05 04:35:14;;;;;;;8.80;3.03;;;;;;;8.38;75.22;100786.06;31205152;28;97708;-61
2023/10/05 04:50:15;;;;;;;7.40;3.83;;;;;;;8.42;75.27;100775.03;31202956;28;97590;-63
2023/10/05 05:05:33;;;;;;;8.48;4.53;;;;;;;8.43;75.65;100774.06;31202041;28;96772;-61
2023/10/05 05:20:34;;;;;;;9.20;4.50;;;;;;;8.57;75.61;100790.53;31203533;28;97243;-62
2023/10/05 05:35:34;;;;;;;8.13;4.63;;;;;;;8.78;75.87;100790.38;31201762;28;111001;-66
2023/10/05 05:50:39;;;;;;;7.30;4.18;;;;;;;9.04;75.59;100785.25;31222019;27;97337;-62
2023/10/05 06:05:39;;;;;;;8.30;4.50;;;;;;;9.27;75.26;100782.22;31218617;28;96637;-64
2023/10/05 06:20:40;;;;;;;8.05;4.68;;;;;;;9.51;75.34;100775.53;31217148;28;96613;-65
2023/10/05 06:35:41;;;;;;;8.60;4.40;;;;;;;10.46;75.14;100783.94;31217026;28;96613;-61
2023/10/05 06:50:41;;;;;;;7.03;3.63;;;;;;;11.69;73.67;100789.88;31214485;27;112807;-62
2023/10/05 07:05:41;;;;;;;11.52;3.88;;;;;;;12.59;71.55;100779.47;31215006;28;97037;-61
2023/10/05 07:20:42;;;;;;;7.82;3.30;;;;;;;13.14;70.33;100781.34;31209086;28;96790;-61
2023/10/05 07:35:43;;;;;;;6.97;3.17;;;;;;;14.12;67.98;100781.84;31209302;28;97373;-61
2023/10/05 07:50:44;;;;;;;7.10;3.05;;;;;;;14.74;65.84;100780.00;31206839;28;97401;-61
2023/10/05 08:05:44;;;;;;;8.97;2.60;;;;;;;15.21;64.76;100769.91;31203943;28;97246;-65
2023/10/05 08:20:44;;;;;;;7.55;3.45;;;;;;;17.21;63.14;100762.84;31204861;28;96811;-65
2023/10/05 08:35:45;;;;;;;6.15;2.47;;;;;;;18.31;56.49;100767.25;31203459;28;104708;-66
2023/10/05 08:50:54;;;;;;;7.80;3.50;;;;;;;22.98;46.83;100749.56;31204632;28;96962;-66
2023/10/05 09:06:20;;;;;;;8.00;3.93;;;;;;;25.40;38.91;100741.03;31203587;28;97240;-64
2023/10/05 09:21:24;;;;;;;7.07;3.53;;;;;;;22.46;37.73;100747.59;31221366;27;96690;-63
2023/10/05 09:36:25;;;;;;;8.80;2.97;;;;;;;20.36;39.13;100764.22;31222849;28;97567;-62
2023/10/05 09:51:26;;;;;;;10.63;3.53;;;;;;;18.59;42.37;100768.94;31218820;27;97194;-62
2023/10/05 10:06:28;;;;;;;9.50;3.42;;;;;;;24.32;34.71;100762.13;31216989;28;97377;-62
2023/10/05 10:21:42;;;;;;;6.83;3.37;;;;;;;22.12;36.56;100760.06;31216051;27;97096;-68
2023/10/05 10:36:47;;;;;;;8.13;3.60;;;;;;;24.16;35.15;100725.69;31214324;28;97898;-62
2023/10/05 10:51:48;;;;;;;6.03;3.30;;;;;;;21.93;37.28;100711.28;31215138;27;97198;-61
2023/10/05 11:06:50;;;;;;;8.90;3.50;;;;;;;19.46;40.71;100698.44;31214370;28;96787;-62
2023/10/05 11:21:51;;;;;;;7.93;4.20;;;;;;;19.10;42.14;100697.19;31212510;28;97305;-63
2023/10/05 11:36:52;;;;;;;8.18;2.83;;;;;;;24.36;37.66;100691.66;31210184;28;96827;-63
2023/10/05 11:51:59;;;;;;;5.90;1.73;;;;;;;34.23;23.90;100677.16;31208078;28;97437;-70
2023/10/05 12:06:59;;;;;;;;;;;;;;;28.92;24.68;100666.16;31207400;28;97495;-62
2023/10/05 12:22:06;;;;;;;10.88;2.03;;;;;;;22.77;32.07;100685.00;31204552;28;96981;-63
2023/10/05 12:37:08;;;;;;;5.73;1.63;;;;;;;21.62;34.56;100688.84;31200631;28;96840;-62
2023/10/05 12:52:08;;;;;;;8.60;2.40;;;;;;;25.12;31.19;100674.69;31215576;27;97340;-61
2023/10/05 13:07:09;;;;;;;5.18;1.50;;;;;;;30.27;24.72;100677.00;31224151;28;97455;-65
2023/10/05 13:22:11;;;;;;;5.63;2.13;;;;;;;32.53;21.37;100673.66;31224342;28;107866;-63
2023/10/05 13:37:13;;;;;;;6.97;2.27;;;;;;;24.90;28.79;100685.63;31223106;28;97128;-61
2023/10/05 13:52:20;;;;;;;4.93;2.00;;;;;;;21.12;34.36;100670.13;31219877;27;96725;-68
2023/10/05 14:07:23;;;;;;;5.37;2.00;;;;;;;19.77;37.19;100667.06;31217565;28;96686;-67
2023/10/05 14:22:24;;;;;;;8.60;2.00;;;;;;;18.73;40.34;100656.41;31216965;28;97661;-60
2023/10/05 14:37:25;;;;;;;8.97;3.27;;;;;;;20.31;39.26;100655.81;31215911;28;97639;-63
2023/10/05 14:52:26;;;;;;;4.95;2.45;;;;;;;19.00;41.36;100645.50;31213890;27;96783;-61
2023/10/05 15:07:30;;;;;;;5.65;2.28;;;;;;;18.22;42.78;100660.63;31212335;27;97516;-67
2023/10/05 15:22:30;;;;;;;5.60;2.40;;;;;;;17.50;44.68;100673.88;31210496;28;96939;-60
2023/10/05 15:37:31;;;;;;;8.02;2.25;;;;;;;17.02;46.53;100682.84;31207075;28;109010;-60
2023/10/05 15:52:32;;;;;;;4.93;2.33;;;;;;;16.73;47.62;100685.56;31190070;27;97194;-60
2023/10/05 16:07:33;;;;;;;5.73;1.80;;;;;;;16.44;48.71;100686.63;31208207;28;97233;-69
2023/10/05 16:22:36;;;;;;;7.32;2.10;;;;;;;16.23;49.32;100699.09;31205406;28;97119;-59
2023/10/05 16:37:39;;;;;;;4.63;2.03;;;;;;;16.04;50.54;100718.59;31204153;28;97620;-67
2023/10/05 16:52:40;;;;;;;6.80;2.20;;;;;;;16.01;50.82;100718.97;31203469;27;96875;-68
2023/10/05 17:07:40;;;;;;;6.10;2.03;;;;;;;15.99;51.42;100729.06;31202611;28;97297;-69
2023/10/05 17:22:42;;;;;;;4.38;1.73;;;;;;;15.94;52.11;100745.78;31202339;28;97899;-64
2023/10/05 17:37:42;;;;;;;12.70;2.20;;;;;;;15.87;52.52;100758.31;31209385;27;97073;-63
2023/10/05 17:52:44;;;;;;;8.23;2.20;;;;;;;15.71;53.37;100754.00;31220424;27;109099;-60
2023/10/05 18:07:44;;;;;;;8.23;2.07;;;;;;;15.68;53.41;100762.44;31219913;28;97659;-63
2023/10/05 18:22:45;;;;;;;8.13;2.60;;;;;;;15.67;53.55;100782.25;31218162;28;97373;-69
2023/10/05 18:37:45;;;;;;;9.70;2.13;;;;;;;15.65;53.88;100806.59;31216707;28;97649;-60
2023/10/05 18:52:46;;;;;;;10.65;2.40;;;;;;;15.65;53.99;100817.34;31215575;27;96775;-67
2023/10/05 19:07:46;;;;;;;6.25;2.22;;;;;;;15.57;54.20;100820.16;31214501;28;98523;-62
2023/10/05 19:22:47;;;;;;;7.65;2.10;;;;;;;15.41;54.80;100842.66;31213655;28;97179;-63
2023/10/05 19:37:47;;;;;;;5.15;2.05;;;;;;;15.32;54.99;100849.13;31211867;28;97363;-61
2023/10/05 19:52:47;;;;;;;6.00;2.50;;;;;;;15.26;55.74;100877.53;31212307;27;97241;-67
2023/10/05 20:07:55;;;;;;;7.10;2.33;;;;;;;14.97;57.63;100915.94;31211066;28;97506;-60
2023/10/05 20:22:56;;;;;;;5.93;2.33;;;;;;;14.25;60.64;100923.25;31207596;28;97097;-66
2023/10/05 20:37:56;;;;;;;2.97;1.55;;;;;;;13.99;62.10;100932.44;31206374;28;97211;-69
2023/10/05 20:52:56;;;;;;;6.25;1.95;;;;;;;13.87;62.89;100942.72;31208037;28;112455;-60
2023/10/05 21:07:59;;;;;;;5.25;2.30;;;;;;;13.81;63.87;100945.25;31210118;28;101674;-65
2023/10/05 21:22:59;;;;;;;6.40;2.47;;;;;;;13.37;64.86;100952.72;31226601;28;96787;-68
2023/10/05 21:37:59;;;;;;;8.15;3.22;;;;;;;13.08;65.90;100947.88;31226547;28;97105;-67
2023/10/05 21:53:01;;;;;;;5.05;2.83;;;;;;;12.63;67.31;100957.19;31223482;27;97472;-67
2023/10/05 22:08:01;;;;;;;9.23;4.37;;;;;;;12.18;68.39;100969.97;31224362;28;97533;-62
2023/10/05 22:23:06;;;;;;;8.50;4.22;;;;;;;11.85;70.23;100977.78;31221947;27;96984;-65
2023/10/05 22:38:10;;;;;;;7.27;3.70;;;;;;;11.74;70.97;100986.09;31220569;28;97379;-66
2023/10/05 22:53:10;;;;;;;9.10;4.50;;;;;;;11.65;72.03;100975.34;31218689;27;97293;-61
2023/10/05 23:08:11;;;;;;;6.55;4.22;;;;;;;11.49;72.33;100993.94;31218606;28;97327;-64
2023/10/05 23:23:11;;;;;;;7.70;4.00;;;;;;;11.37;73.35;101006.69;31217306;28;97276;-67
2023/10/05 23:38:12;;;;;;;9.07;4.45;;;;;;;11.26;73.93;101020.28;31214755;27;115488;-63
2023/10/05 23:53:13;;;;;;;10.20;4.63;;;;;;;11.25;74.38;101029.25;31213000;27;97168;-62
